»·PEaware :: N75232 KCRQ-KSNA

N75232 :: KCRQ-KSNA

FLIGHT INFORMATION

Flight Status: Arrived
Operator: Privately registered:
United States
More flights under this callsign
Pilot: Daniel B. (28719)
Aircraft: CESSNA 172 SKYHAWK
(C172)
More flights by this aircraft type
Origin: KCRQ McClellan-Palomar
United States
Destination: KSNA John Wayne-Orange Co
United States
More flights between these airports :: More routes between these airports
Route: +OCN V23 SLI
File this flight plan on PilotEdge
Remarks:
Altitude:
(Current/Filed)
4,000ft
Speed:
(Current/Filed)
115kts
Departed: 03-May-20 06:05 PM
Arrived: 03-May-20 06:38 PM
Distance/Time
Traveled:
44nm/0:33
Distance/Time
To Go:
Arrived

Flight Plot

Page will automatically refresh every two minutes.


Map Options




Map Legend


Flown Route
Filed Route
Departure Airport
Arrival Airport
Navaid (VOR, NDB)
Fix

Horizontal Profiles

Position Reports

Time Latitude Longitude Heading Altitude Ground
Speed
03-May-20 17:03 33.127290 -117.277877 355 335ft 0kts
03-May-20 17:04 33.127290 -117.277877 355 335ft 0kts
03-May-20 17:05 33.127290 -117.277877 355 335ft 0kts
03-May-20 17:06 33.127290 -117.277877 355 335ft 0kts
03-May-20 17:07 33.127290 -117.277877 355 335ft 0kts
03-May-20 17:08 33.127290 -117.277877 355 335ft 0kts
03-May-20 17:09 33.127290 -117.277877 355 335ft 0kts
03-May-20 17:10 33.127290 -117.277877 355 335ft 0kts
03-May-20 17:11 33.127290 -117.277877 355 335ft 0kts
03-May-20 17:12 33.127290 -117.277877 355 335ft 0kts
03-May-20 17:13 33.127290 -117.277877 355 335ft 0kts
03-May-20 17:14 33.127290 -117.277877 355 335ft 0kts
03-May-20 17:15 33.127290 -117.277877 355 335ft 0kts
03-May-20 17:16 33.127290 -117.277877 355 335ft 0kts
03-May-20 17:17 33.127290 -117.277877 355 335ft 0kts
03-May-20 17:18 33.127290 -117.277877 355 335ft 0kts
03-May-20 17:19 33.127290 -117.277877 355 335ft 0kts
03-May-20 17:20 33.127290 -117.277877 355 335ft 0kts
03-May-20 17:21 33.127290 -117.277877 355 335ft 0kts
03-May-20 17:22 33.127290 -117.277877 355 335ft 0kts
03-May-20 17:23 33.127290 -117.277877 355 335ft 0kts
03-May-20 17:24 33.127290 -117.277877 355 335ft 0kts
03-May-20 17:25 33.127290 -117.277877 355 335ft 0kts
03-May-20 17:26 33.127290 -117.277877 355 335ft 0kts
03-May-20 17:27 33.127290 -117.277877 355 335ft 0kts
03-May-20 17:28 33.127290 -117.277877 355 335ft 0kts
03-May-20 17:29 33.127290 -117.277877 355 335ft 0kts
03-May-20 17:30 33.127290 -117.277877 355 335ft 0kts
03-May-20 17:31 33.127290 -117.277877 355 335ft 0kts
03-May-20 17:32 33.127290 -117.277877 355 335ft 0kts
03-May-20 17:33 33.127290 -117.277877 355 335ft 0kts
03-May-20 17:34 33.127290 -117.277877 355 335ft 0kts
03-May-20 17:35 33.127290 -117.277877 355 335ft 0kts
03-May-20 17:36 33.127290 -117.277877 355 335ft 0kts
03-May-20 17:37 33.127290 -117.277877 355 335ft 0kts
03-May-20 17:38 33.127290 -117.277877 355 335ft 0kts
03-May-20 17:39 33.127290 -117.277877 355 335ft 0kts
03-May-20 17:40 33.127290 -117.277877 355 335ft 0kts
03-May-20 17:41 33.127290 -117.277877 355 335ft 0kts
03-May-20 17:42 33.127290 -117.277877 355 335ft 0kts
03-May-20 17:43 33.127290 -117.277877 355 335ft 0kts
03-May-20 17:44 33.127290 -117.277877 355 335ft 0kts
03-May-20 17:45 33.127290 -117.277877 355 335ft 0kts
03-May-20 17:46 33.127290 -117.277877 355 335ft 0kts
03-May-20 17:47 33.127290 -117.277877 355 335ft 0kts
03-May-20 17:48 33.127290 -117.277877 355 335ft 0kts
03-May-20 17:49 33.127290 -117.277877 355 335ft 0kts
03-May-20 17:50 33.127290 -117.277877 355 335ft 0kts
03-May-20 17:51 33.127290 -117.277877 355 335ft 0kts
03-May-20 17:52 33.127290 -117.277877 355 335ft 0kts
03-May-20 17:53 33.127290 -117.277877 355 335ft 0kts
03-May-20 17:54 33.127290 -117.277877 355 335ft 0kts
03-May-20 17:55 33.127290 -117.277877 355 335ft 0kts
03-May-20 17:56 33.127290 -117.277877 355 335ft 0kts
03-May-20 17:57 33.127290 -117.277877 355 335ft 0kts
03-May-20 17:58 33.127290 -117.277877 355 335ft 0kts
03-May-20 17:59 33.128001 -117.276575 78 335ft 16kts
03-May-20 18:00 33.128708 -117.272407 55 335ft 0kts
03-May-20 18:01 33.128708 -117.272407 55 335ft 0kts
03-May-20 18:02 33.128708 -117.272407 55 335ft 0kts
03-May-20 18:03 33.128708 -117.272407 55 335ft 0kts
03-May-20 18:04 33.128556 -117.278363 258 384ft 75kts
03-May-20 18:05 33.125166 -117.306254 262 1204ft 89kts
03-May-20 18:06 33.122797 -117.335585 262 2056ft 89kts
03-May-20 18:07 33.120191 -117.365021 264 2841ft 90kts
03-May-20 18:08 33.117086 -117.394030 261 3619ft 88kts
03-May-20 18:09 33.117138 -117.422069 322 4306ft 85kts
03-May-20 18:10 33.140412 -117.422664 354 4971ft 87kts
03-May-20 18:11 33.164774 -117.422385 353 5590ft 88kts
03-May-20 18:12 33.190192 -117.422056 350 6001ft 104kts
03-May-20 18:14 33.221233 -117.419845 0 6042ft 116kts
03-May-20 18:15 33.251038 -117.426667 316 6025ft 110kts
03-May-20 18:16 33.272881 -117.452045 306 6002ft 109kts
03-May-20 18:17 33.294498 -117.477115 313 6036ft 109kts
03-May-20 18:18 33.316951 -117.501766 308 6011ft 110kts
03-May-20 18:19 33.337191 -117.528725 307 5996ft 109kts
03-May-20 18:20 33.357396 -117.555654 312 5983ft 109kts
03-May-20 18:21 33.380674 -117.578594 309 6016ft 106kts
03-May-20 18:22 33.400940 -117.604154 309 6052ft 106kts
03-May-20 18:23 33.422001 -117.629124 313 6061ft 108kts
03-May-20 18:24 33.443589 -117.654395 309 6055ft 108kts
03-May-20 18:25 33.465811 -117.679079 309 6064ft 109kts
03-May-20 18:26 33.491019 -117.700899 331 5889ft 123kts
03-May-20 18:26 33.518118 -117.713498 331 5431ft 128kts
03-May-20 18:28 33.556012 -117.731677 333 4825ft 129kts
03-May-20 18:29 33.588359 -117.747610 333 4262ft 129kts
03-May-20 18:29 33.608539 -117.761271 300 3568ft 94kts
03-May-20 18:30 33.628769 -117.771556 349 2953ft 91kts
03-May-20 18:32 33.651250 -117.782148 305 2261ft 90kts
03-May-20 18:32 33.663259 -117.799487 300 1623ft 96kts
03-May-20 18:33 33.673357 -117.817805 296 1153ft 77kts
03-May-20 18:34 33.682002 -117.833054 296 831ft 72kts
03-May-20 18:35 33.686664 -117.848252 263 537ft 62kts
03-May-20 18:36 33.683597 -117.861903 204 157ft 56kts
03-May-20 18:37 33.676960 -117.865722 133 60ft 11kts
03-May-20 18:38 33.676870 -117.865573 122 60ft 0kts
03-May-20 18:39 33.676808 -117.865449 122 60ft 0kts
03-May-20 18:40 33.675043 -117.865763 149 60ft 5kts
03-May-20 18:41 33.672518 -117.867846 210 60ft 17kts
03-May-20 18:42 33.670695 -117.867994 217 60ft 2kts
03-May-20 18:43 33.670679 -117.868009 217 60ft 0kts
03-May-20 18:44 33.670679 -117.868009 217 60ft 0kts

Navigation Log

Ident Type
Flight plan parsing failed, navigation log unavailable